Time;durP1;ratioP1;P1;durP2;ratioP2;P2;SDS_P1;SDS_P2;PMS_P1;PMS_P2;Temp;Humidity;BMP_temperature;BMP_pressure;BME280_temperature;BME280_humidity;BME280_pressure;Samples;Min_cycle;Max_cycle;Signal;HPM_P1;HPM_P2
2021/10/28 00:13:56;;;;;;;73.25;39.00;;;;;;;;;;5024351;28;20073;-70
2021/10/28 00:16:26;;;;;;;89.60;42.92;;;;;;;;;;5006301;28;20128;-70
2021/10/28 00:19:00;;;;;;;85.88;43.30;;;;;;;;;;5005412;28;20045;-70
2021/10/28 00:21:26;;;;;;;;;;;;;;;;;;5008171;28;20406;-70
2021/10/28 00:23:54;;;;;;;82.13;42.35;;;;;;;;;;5010368;28;19929;-70
2021/10/28 00:26:20;;;;;;;82.07;44.63;;;;;;;;;;5007442;28;20085;-70
2021/10/28 00:28:46;;;;;;;85.43;46.47;;;;;;;;;;5022871;28;20042;-70
2021/10/28 00:31:12;;;;;;;89.68;46.38;;;;;;;;;;5007089;28;20115;-70
2021/10/28 00:33:38;;;;;;;85.28;45.85;;;;;;;;;;5009245;28;20056;-70
2021/10/28 00:36:06;;;;;;;76.60;43.80;;;;;;;;;;5020356;28;20593;-70
2021/10/28 00:38:33;;;;;;;80.25;44.40;;;;;;;;;;5009162;28;20078;-70
2021/10/28 00:41:00;;;;;;;80.13;45.63;;;;;;;;;;5009205;28;20107;-70
2021/10/28 00:43:27;;;;;;;75.13;43.40;;;;;;;;;;5008382;28;20034;-70
2021/10/28 00:45:53;;;;;;;78.82;43.88;;;;;;;;;;5009515;28;20204;-70
2021/10/28 00:48:20;;;;;;;74.40;44.13;;;;;;;;;;5007235;28;20510;-70
2021/10/28 00:50:50;;;;;;;70.68;41.88;;;;;;;;;;5009715;28;20050;-70
2021/10/28 00:53:16;;;;;;;74.10;42.20;;;;;;;;;;5009592;28;20042;-70
2021/10/28 00:55:43;;;;;;;71.10;42.80;;;;;;;;;;5005481;28;20054;-70
2021/10/28 00:58:09;;;;;;;67.05;41.55;;;;;;;;;;5009488;28;20498;-70
2021/10/28 01:00:36;;;;;;;63.63;40.03;;;;;;;;;;5010148;28;20485;-70
2021/10/28 01:03:03;;;;;;;66.45;40.17;;;;;;;;;;4990506;28;20138;-70
2021/10/28 01:05:30;;;;;;;59.65;37.40;;;;;;;;;;5000443;28;20065;-70
2021/10/28 01:07:56;;;;;;;60.30;37.40;;;;;;;;;;5018020;28;20042;-70
2021/10/28 01:10:22;;;;;;;54.33;35.67;;;;;;;;;;5007391;28;20042;-70
2021/10/28 01:12:48;;;;;;;53.83;36.10;;;;;;;;;;5010835;28;20042;-70
2021/10/28 01:15:16;;;;;;;55.50;36.70;;;;;;;;;;5004019;28;20130;-70
2021/10/28 01:17:42;;;;;;;58.13;35.22;;;;;;;;;;5008859;28;20041;-70
2021/10/28 01:20:09;;;;;;;53.67;35.13;;;;;;;;;;5006414;28;20089;-70
2021/10/28 01:22:35;;;;;;;55.65;35.30;;;;;;;;;;5019949;28;20050;-70
2021/10/28 01:25:01;;;;;;;55.38;34.90;;;;;;;;;;4992581;28;20034;-70
2021/10/28 01:27:27;;;;;;;55.72;35.03;;;;;;;;;;5009002;28;20045;-70
2021/10/28 01:29:53;;;;;;;56.70;37.15;;;;;;;;;;5004962;28;20076;-70
2021/10/28 01:32:20;;;;;;;59.58;38.67;;;;;;;;;;5011097;28;20042;-70
2021/10/28 01:34:46;;;;;;;60.30;37.28;;;;;;;;;;5012540;28;20459;-70
2021/10/28 01:37:13;;;;;;;57.60;35.20;;;;;;;;;;5010553;28;20046;-70
2021/10/28 01:39:40;;;;;;;53.83;34.50;;;;;;;;;;5012729;28;20048;-70
2021/10/28 01:42:09;;;;;;;54.17;35.25;;;;;;;;;;5010023;28;20049;-70
2021/10/28 01:44:36;;;;;;;59.72;34.55;;;;;;;;;;5012036;28;20056;-70
2021/10/28 01:47:02;;;;;;;56.95;36.22;;;;;;;;;;5011017;28;20052;-70
2021/10/28 01:49:29;;;;;;;56.55;34.78;;;;;;;;;;5000150;28;20101;-70
2021/10/28 01:51:56;;;;;;;53.70;33.72;;;;;;;;;;5013075;28;20168;-70
2021/10/28 01:54:24;;;;;;;58.47;35.72;;;;;;;;;;5022687;28;20064;-70
2021/10/28 01:56:51;;;;;;;56.55;35.05;;;;;;;;;;5026975;28;20050;-70
2021/10/28 01:59:17;;;;;;;55.00;34.95;;;;;;;;;;5013622;28;20046;-70
2021/10/28 02:01:44;;;;;;;51.08;34.85;;;;;;;;;;5011415;28;20073;-70
2021/10/28 02:04:11;;;;;;;50.28;32.30;;;;;;;;;;5013366;28;20041;-70
2021/10/28 02:06:37;;;;;;;54.85;32.67;;;;;;;;;;5012339;28;20049;-70
2021/10/28 02:09:04;;;;;;;54.67;33.38;;;;;;;;;;5009039;28;20482;-70
2021/10/28 02:11:30;;;;;;;56.20;34.10;;;;;;;;;;5026117;28;20490;-70
2021/10/28 02:13:58;;;;;;;52.70;32.88;;;;;;;;;;5008952;28;20052;-70
2021/10/28 02:16:28;;;;;;;54.53;32.53;;;;;;;;;;5008634;28;20048;-70
2021/10/28 02:18:55;;;;;;;51.25;32.92;;;;;;;;;;5043918;28;20044;-70
2021/10/28 02:21:21;;;;;;;56.30;34.13;;;;;;;;;;5013147;28;20100;-70
2021/10/28 02:23:48;;;;;;;53.13;32.92;;;;;;;;;;5009962;28;20046;-70
2021/10/28 02:26:14;;;;;;;54.55;34.50;;;;;;;;;;5011224;28;20132;-70
2021/10/28 02:28:40;;;;;;;59.95;34.83;;;;;;;;;;5011034;28;20077;-70
2021/10/28 02:31:06;;;;;;;63.38;36.60;;;;;;;;;;5011927;28;20041;-70
2021/10/28 02:33:33;;;;;;;63.85;35.28;;;;;;;;;;5008627;28;20324;-70
2021/10/28 02:35:59;;;;;;;63.17;35.85;;;;;;;;;;5009239;28;20077;-70
2021/10/28 02:38:25;;;;;;;61.65;34.05;;;;;;;;;;5011852;28;20034;-70
2021/10/28 02:40:51;;;;;;;60.20;36.35;;;;;;;;;;5008470;28;20108;-70
2021/10/28 02:43:17;;;;;;;60.20;36.97;;;;;;;;;;5010345;28;20041;-70
2021/10/28 02:45:43;;;;;;;64.95;38.13;;;;;;;;;;5011170;28;20063;-70
2021/10/28 02:48:10;;;;;;;65.10;38.05;;;;;;;;;;5013266;28;20046;-70
2021/10/28 02:50:36;;;;;;;68.47;37.45;;;;;;;;;;5013131;28;20042;-70
2021/10/28 02:53:02;;;;;;;69.43;38.42;;;;;;;;;;5021305;28;20091;-70
2021/10/28 02:55:28;;;;;;;65.40;38.78;;;;;;;;;;5010028;28;20133;-70
2021/10/28 02:57:54;;;;;;;66.90;38.58;;;;;;;;;;5011806;28;20065;-70
2021/10/28 03:00:20;;;;;;;72.07;39.95;;;;;;;;;;5011451;28;20066;-70
2021/10/28 03:02:46;;;;;;;65.55;37.55;;;;;;;;;;5011346;28;20050;-70
2021/10/28 03:05:13;;;;;;;70.55;40.42;;;;;;;;;;5013888;28;20049;-70
2021/10/28 03:07:39;;;;;;;72.57;38.05;;;;;;;;;;4997524;28;20068;-70
2021/10/28 03:10:07;;;;;;;69.38;37.60;;;;;;;;;;5012004;28;20385;-70
2021/10/28 03:12:36;;;;;;;69.72;38.95;;;;;;;;;;5011477;28;20410;-70
2021/10/28 03:15:04;;;;;;;75.20;40.63;;;;;;;;;;5012723;28;20060;-70
2021/10/28 03:28:01;;;;;;;69.53;38.10;;;;;;;;;;5012352;28;20473;-70
2021/10/28 03:30:28;;;;;;;65.15;36.72;;;;;;;;;;5010396;28;20103;-70
2021/10/28 03:32:54;;;;;;;65.70;37.28;;;;;;;;;;4991724;28;20057;-70
2021/10/28 03:35:21;;;;;;;75.30;37.92;;;;;;;;;;5014235;28;20459;-70
2021/10/28 03:40:45;;;;;;;66.72;36.88;;;;;;;;;;5023589;28;20057;-70
2021/10/28 03:46:37;;;;;;;74.43;37.42;;;;;;;;;;5012372;28;20053;-70
2021/10/28 03:49:29;;;;;;;65.00;35.38;;;;;;;;;;5009891;28;20050;-70
2021/10/28 03:52:36;;;;;;;77.53;38.50;;;;;;;;;;5008056;28;20082;-70
2021/10/28 03:55:10;;;;;;;90.88;39.15;;;;;;;;;;5013887;28;20517;-70
2021/10/28 03:57:54;;;;;;;66.47;36.25;;;;;;;;;;5011927;28;20123;-70
2021/10/28 04:08:23;;;;;;;60.45;32.97;;;;;;;;;;5016625;28;20064;-70
2021/10/28 04:16:49;;;;;;;64.82;33.72;;;;;;;;;;5011065;28;20148;-70
2021/10/28 04:22:05;;;;;;;61.75;34.95;;;;;;;;;;5014639;28;20155;-70
2021/10/28 04:30:01;;;;;;;52.70;30.60;;;;;;;;;;5028534;28;20108;-70
2021/10/28 04:32:28;;;;;;;63.72;33.70;;;;;;;;;;5009944;28;20049;-70
2021/10/28 04:34:54;;;;;;;54.58;30.20;;;;;;;;;;5004569;28;20045;-70
2021/10/28 04:37:21;;;;;;;52.70;30.50;;;;;;;;;;5005921;28;20047;-70
2021/10/28 04:39:47;;;;;;;56.35;30.42;;;;;;;;;;4990465;28;20044;-70
2021/10/28 04:42:13;;;;;;;52.92;30.33;;;;;;;;;;5012336;28;20119;-70
2021/10/28 04:44:41;;;;;;;48.40;28.98;;;;;;;;;;5008744;28;20053;-70
2021/10/28 04:47:07;;;;;;;50.38;28.90;;;;;;;;;;5015021;28;20115;-71
2021/10/28 04:49:33;;;;;;;49.97;29.45;;;;;;;;;;5008324;28;20076;-71
2021/10/28 04:52:00;;;;;;;49.00;28.20;;;;;;;;;;5005658;28;20149;-71
2021/10/28 04:54:26;;;;;;;45.72;27.33;;;;;;;;;;5004999;28;20037;-69
2021/10/28 04:56:52;;;;;;;48.10;27.33;;;;;;;;;;5008704;28;20060;-70
2021/10/28 04:59:18;;;;;;;44.47;26.92;;;;;;;;;;5014159;28;20045;-70
2021/10/28 05:01:44;;;;;;;49.65;27.20;;;;;;;;;;5009095;28;20164;-70
2021/10/28 05:04:11;;;;;;;45.22;26.63;;;;;;;;;;5008105;28;20105;-70
2021/10/28 05:06:37;;;;;;;42.72;25.85;;;;;;;;;;5022752;28;20049;-70
2021/10/28 05:09:04;;;;;;;45.10;26.23;;;;;;;;;;5014657;28;20044;-71
2021/10/28 05:11:30;;;;;;;41.45;25.10;;;;;;;;;;5034236;28;20120;-70
2021/10/28 05:13:57;;;;;;;45.08;24.77;;;;;;;;;;5032707;28;20052;-70
2021/10/28 05:16:23;;;;;;;42.10;25.00;;;;;;;;;;5014779;28;20049;-70
2021/10/28 05:18:50;;;;;;;36.22;23.65;;;;;;;;;;5034295;28;20120;-70
2021/10/28 05:21:17;;;;;;;37.63;24.02;;;;;;;;;;5014699;28;20123;-70
2021/10/28 05:23:43;;;;;;;37.25;24.75;;;;;;;;;;5019759;28;20033;-70
2021/10/28 05:26:10;;;;;;;41.38;22.95;;;;;;;;;;5017749;28;20558;-70
2021/10/28 05:28:36;;;;;;;34.85;22.42;;;;;;;;;;5019145;28;20133;-70
2021/10/28 05:31:03;;;;;;;42.28;23.27;;;;;;;;;;5000073;28;20045;-71
2021/10/28 05:33:29;;;;;;;39.22;22.40;;;;;;;;;;5020727;28;20104;-70
2021/10/28 05:35:55;;;;;;;38.35;22.83;;;;;;;;;;5014387;28;20085;-70
2021/10/28 05:38:21;;;;;;;41.88;23.75;;;;;;;;;;5029624;28;20048;-70
2021/10/28 05:40:48;;;;;;;38.65;22.67;;;;;;;;;;5024081;28;20173;-71
2021/10/28 05:43:14;;;;;;;35.42;21.90;;;;;;;;;;5009411;28;20045;-70
2021/10/28 05:45:40;;;;;;;33.53;23.48;;;;;;;;;;5010019;28;20054;-70
2021/10/28 05:48:06;;;;;;;33.70;22.33;;;;;;;;;;5012821;28;20046;-70
2021/10/28 05:50:33;;;;;;;34.25;21.75;;;;;;;;;;5031437;28;20046;-70
2021/10/28 05:53:00;;;;;;;34.92;21.98;;;;;;;;;;5016516;28;20046;-70
2021/10/28 05:55:26;;;;;;;39.47;22.50;;;;;;;;;;5033079;28;20418;-70
2021/10/28 05:57:53;;;;;;;34.05;22.08;;;;;;;;;;5016960;28;20041;-70
2021/10/28 06:00:21;;;;;;;38.25;21.75;;;;;;;;;;5014149;28;20053;-70
2021/10/28 06:02:47;;;;;;;36.58;22.67;;;;;;;;;;5033596;28;20041;-70
2021/10/28 06:05:14;;;;;;;37.65;21.50;;;;;;;;;;5028354;28;20107;-70
2021/10/28 06:07:40;;;;;;;32.20;20.63;;;;;;;;;;5015439;28;20131;-70
2021/10/28 06:10:07;;;;;;;35.00;21.92;;;;;;;;;;5014867;28;20482;-70
2021/10/28 06:12:37;;;;;;;34.70;21.60;;;;;;;;;;5017074;28;20485;-70
2021/10/28 06:15:04;;;;;;;37.35;21.05;;;;;;;;;;5016598;28;20092;-70
2021/10/28 06:17:33;;;;;;;36.50;21.65;;;;;;;;;;5032299;28;20064;-70
2021/10/28 06:20:00;;;;;;;36.63;19.83;;;;;;;;;;5016132;28;20041;-70
2021/10/28 06:22:27;;;;;;;31.73;21.48;;;;;;;;;;5039035;28;20051;-70
2021/10/28 06:24:54;;;;;;;34.53;20.73;;;;;;;;;;5048609;28;20049;-70
2021/10/28 06:27:21;;;;;;;37.35;21.70;;;;;;;;;;5034071;28;20042;-70
2021/10/28 06:29:47;;;;;;;34.15;20.50;;;;;;;;;;5032795;28;20128;-70
2021/10/28 06:32:14;;;;;;;32.03;20.60;;;;;;;;;;5048503;28;20041;-70
2021/10/28 06:34:43;;;;;;;33.50;21.13;;;;;;;;;;5033974;28;20056;-70
2021/10/28 06:37:09;;;;;;;33.50;21.67;;;;;;;;;;5049620;28;20053;-70
2021/10/28 06:39:35;;;;;;;35.13;19.40;;;;;;;;;;5048352;28;20052;-70
2021/10/28 06:42:03;;;;;;;31.35;20.48;;;;;;;;;;5049050;28;20045;-70
2021/10/28 06:44:30;;;;;;;33.38;19.75;;;;;;;;;;5049244;28;20060;-70
2021/10/28 06:46:56;;;;;;;30.67;20.80;;;;;;;;;;5047943;28;20509;-70
2021/10/28 06:49:23;;;;;;;39.50;21.05;;;;;;;;;;5049255;28;20049;-70
2021/10/28 06:51:49;;;;;;;33.25;19.55;;;;;;;;;;5033790;28;20129;-70
2021/10/28 07:02:32;;;;;;;30.60;19.52;;;;;;;;;;5048739;28;20061;-70
2021/10/28 07:04:59;;;;;;;29.00;18.38;;;;;;;;;;5031922;28;20056;-70
2021/10/28 07:07:26;;;;;;;30.60;19.65;;;;;;;;;;5032645;28;20041;-70
2021/10/28 07:10:11;;;;;;;30.40;18.02;;;;;;;;;;5048602;28;20088;-70
2021/10/28 07:12:47;;;;;;;29.45;19.67;;;;;;;;;;5048614;28;20053;-70
2021/10/28 07:15:31;;;;;;;30.77;18.40;;;;;;;;;;5047729;28;20042;-70
2021/10/28 07:18:09;;;;;;;29.52;17.75;;;;;;;;;;5033109;28;20412;-70
2021/10/28 07:20:59;;;;;;;28.13;18.83;;;;;;;;;;5014673;28;20049;-70
2021/10/28 07:31:53;;;;;;;24.63;16.70;;;;;;;;;;5030803;28;20423;-70
2021/10/28 08:06:19;;;;;;;27.63;17.33;;;;;;;;;;5047245;28;20073;-70
2021/10/28 08:14:42;;;;;;;25.55;15.82;;;;;;;;;;5032012;28;20124;-70
2021/10/28 08:19:49;;;;;;;20.00;15.18;;;;;;;;;;5031658;28;20049;-70
2021/10/28 08:30:12;;;;;;;20.10;14.27;;;;;;;;;;5047024;28;20061;-70
2021/10/28 08:32:39;;;;;;;26.17;16.17;;;;;;;;;;5046638;28;20064;-70
2021/10/28 08:35:06;;;;;;;23.20;14.40;;;;;;;;;;5046876;28;20056;-70
2021/10/28 08:37:46;;;;;;;19.20;13.93;;;;;;;;;;5047308;28;20512;-71
2021/10/28 08:40:14;;;;;;;20.67;13.90;;;;;;;;;;5046442;28;20068;-70
2021/10/28 08:42:42;;;;;;;20.92;15.23;;;;;;;;;;5031616;28;20049;-71
2021/10/28 08:45:11;;;;;;;21.15;14.65;;;;;;;;;;5030986;28;20049;-70
2021/10/28 08:47:45;;;;;;;25.27;15.98;;;;;;;;;;5046666;28;20128;-70
2021/10/28 08:50:14;;;;;;;19.30;13.70;;;;;;;;;;5046741;28;20045;-70
2021/10/28 08:52:53;;;;;;;18.00;14.10;;;;;;;;;;5045946;28;20049;-70
2021/10/28 08:55:25;;;;;;;17.60;13.07;;;;;;;;;;5046728;28;20076;-71
2021/10/28 08:58:09;;;;;;;16.55;12.63;;;;;;;;;;5046834;28;20041;-70
2021/10/28 09:25:34;;;;;;;14.07;10.00;;;;;;;;;;5046547;28;20137;-70
2021/10/28 09:30:36;;;;;;;11.85;9.88;;;;;;;;;;5046265;28;20439;-71
2021/10/28 09:33:07;;;;;;;19.02;11.10;;;;;;;;;;5046437;28;20057;-70
2021/10/28 09:35:56;;;;;;;15.48;10.20;;;;;;;;;;5045532;28;20053;-70
2021/10/28 09:46:46;;;;;;;15.82;10.80;;;;;;;;;;5046190;28;20057;-70
2021/10/28 09:51:46;;;;;;;13.75;9.68;;;;;;;;;;5031112;28;20471;-70
2021/10/28 09:54:23;;;;;;;18.70;10.23;;;;;;;;;;5032778;28;20053;-71
2021/10/28 09:59:47;;;;;;;14.23;9.90;;;;;;;;;;5049511;28;20049;-70
2021/10/28 10:02:36;;;;;;;13.90;10.00;;;;;;;;;;5036165;28;20046;-70
2021/10/28 10:05:04;;;;;;;14.93;9.88;;;;;;;;;;5018198;28;20409;-71
2021/10/28 10:07:31;;;;;;;16.15;8.95;;;;;;;;;;5017019;28;20051;-71
2021/10/28 10:09:58;;;;;;;17.60;9.75;;;;;;;;;;5048701;28;20056;-71
2021/10/28 10:12:24;;;;;;;22.35;9.57;;;;;;;;;;5031717;28;20127;-77
2021/10/28 10:14:50;;;;;;;15.45;9.90;;;;;;;;;;5030465;28;20042;-70
2021/10/28 10:17:17;;;;;;;12.55;8.60;;;;;;;;;;5016275;28;20073;-71
2021/10/28 10:19:46;;;;;;;13.80;9.30;;;;;;;;;;5016026;28;20149;-70
2021/10/28 10:22:18;;;;;;;12.23;8.90;;;;;;;;;;5014443;28;20046;-71
2021/10/28 10:30:14;;;;;;;12.48;9.52;;;;;;;;;;5013868;28;20457;-71
2021/10/28 11:21:16;;;;;;;10.63;8.20;;;;;;;;;;5013896;28;20060;-71
2021/10/28 11:24:14;;;;;;;12.18;7.82;;;;;;;;;;5016800;28;20049;-71
2021/10/28 12:46:21;;;;;;;8.32;6.63;;;;;;;;;;5035360;28;20057;-71
2021/10/28 12:57:07;;;;;;;7.75;5.85;;;;;;;;;;5017192;28;20533;-83
2021/10/28 13:02:43;;;;;;;12.50;6.63;;;;;;;;;;5018236;28;20118;-83
2021/10/28 13:37:55;;;;;;;8.30;6.25;;;;;;;;;;5028320;28;20050;-83
2021/10/28 13:54:16;;;;;;;9.05;5.97;;;;;;;;;;5014324;28;20042;-83
2021/10/28 14:16:45;;;;;;;9.77;6.88;;;;;;;;;;5026907;28;20569;-83
2021/10/28 14:21:32;;;;;;;11.77;7.03;;;;;;;;;;5025130;28;20064;-79
2021/10/28 14:26:59;;;;;;;11.35;7.05;;;;;;;;;;5017407;28;20058;-79
2021/10/28 14:29:41;;;;;;;11.77;6.80;;;;;;;;;;5009525;28;20362;-82
2021/10/28 14:59:34;;;;;;;16.60;8.80;;;;;;;;;;5009391;28;20038;-85
2021/10/28 15:01:59;;;;;;;13.52;9.82;;;;;;;;;;5011703;28;20049;-83
2021/10/28 15:29:14;;;;;;;15.23;10.18;;;;;;;;;;5007507;28;20054;-84
2021/10/28 15:32:17;;;;;;;20.38;10.95;;;;;;;;;;5002934;28;20156;-83
2021/10/28 15:37:38;;;;;;;15.52;10.73;;;;;;;;;;5020693;28;20050;-85
2021/10/28 15:40:18;;;;;;;16.52;11.27;;;;;;;;;;5022655;28;20109;-86
2021/10/28 15:56:14;;;;;;;18.70;12.25;;;;;;;;;;5010797;28;20053;-84
2021/10/28 16:01:28;;;;;;;19.10;12.20;;;;;;;;;;5009595;28;20049;-86
2021/10/28 16:23:07;;;;;;;20.60;13.82;;;;;;;;;;5003813;28;20049;-88
2021/10/28 16:25:33;;;;;;;20.20;14.88;;;;;;;;;;5007632;28;20042;-82
2021/10/28 16:27:59;;;;;;;21.38;14.73;;;;;;;;;;5009036;28;20038;-82
2021/10/28 16:30:26;;;;;;;23.23;16.55;;;;;;;;;;5007261;28;20088;-82
2021/10/28 16:32:53;;;;;;;20.58;14.90;;;;;;;;;;5005248;28;20053;-82
2021/10/28 16:35:19;;;;;;;25.17;15.23;;;;;;;;;;5006751;28;20048;-82
2021/10/28 16:37:46;;;;;;;22.38;15.18;;;;;;;;;;5008244;28;20046;-82
2021/10/28 16:40:12;;;;;;;22.55;15.85;;;;;;;;;;5009263;28;20048;-83
2021/10/28 16:42:38;;;;;;;22.65;15.75;;;;;;;;;;5007559;28;20054;-83
2021/10/28 16:45:08;;;;;;;23.38;16.10;;;;;;;;;;5007157;28;20038;-82
2021/10/28 16:47:34;;;;;;;23.98;16.70;;;;;;;;;;5007632;28;20045;-84
2021/10/28 16:50:00;;;;;;;23.90;16.55;;;;;;;;;;5003578;28;20038;-83
2021/10/28 16:52:27;;;;;;;22.58;15.95;;;;;;;;;;5010073;28;20060;-83
2021/10/28 16:54:53;;;;;;;25.00;16.23;;;;;;;;;;5011727;28;20056;-83
2021/10/28 16:57:19;;;;;;;27.20;17.00;;;;;;;;;;5010766;28;20050;-83
2021/10/28 16:59:45;;;;;;;25.48;17.23;;;;;;;;;;5013195;28;20385;-82
2021/10/28 17:02:12;;;;;;;26.73;17.63;;;;;;;;;;5007265;28;20060;-83
2021/10/28 17:04:38;;;;;;;21.95;16.13;;;;;;;;;;5020336;28;20049;-83
2021/10/28 17:07:04;;;;;;;27.70;16.95;;;;;;;;;;5014237;28;20129;-83
2021/10/28 17:09:31;;;;;;;29.45;18.63;;;;;;;;;;5024791;28;20449;-83
2021/10/28 17:11:57;;;;;;;24.60;16.45;;;;;;;;;;5018484;28;20070;-82
2021/10/28 17:14:24;;;;;;;27.92;18.10;;;;;;;;;;5018182;28;20054;-82
2021/10/28 17:16:50;;;;;;;28.83;18.00;;;;;;;;;;5027870;28;20042;-83
2021/10/28 17:19:17;;;;;;;23.80;17.98;;;;;;;;;;5015982;28;20493;-83
2021/10/28 17:21:45;;;;;;;27.63;17.92;;;;;;;;;;5021003;28;20100;-82
2021/10/28 17:24:36;;;;;;;26.63;16.88;;;;;;;;;;5006467;28;20472;-82
2021/10/28 17:26:57;;;;;;;25.38;18.08;;;;;;;;;;5012203;28;20060;-82
2021/10/28 17:29:23;;;;;;;23.77;18.10;;;;;;;;;;5014247;28;20112;-82
2021/10/28 17:31:52;;;;;;;26.33;17.52;;;;;;;;;;5019310;28;20128;-82
2021/10/28 17:34:18;;;;;;;26.80;17.52;;;;;;;;;;5009558;28;20371;-83
2021/10/28 17:36:51;;;;;;;26.27;17.83;;;;;;;;;;5012462;28;20478;-82
2021/10/28 17:39:17;;;;;;;26.20;18.38;;;;;;;;;;5009462;28;20077;-83
2021/10/28 17:41:44;;;;;;;26.38;17.40;;;;;;;;;;5013528;28;20386;-82
2021/10/28 17:44:10;;;;;;;27.77;17.20;;;;;;;;;;5016219;28;20464;-82
2021/10/28 17:46:36;;;;;;;23.67;15.88;;;;;;;;;;5010807;28;20125;-82
2021/10/28 17:49:03;;;;;;;28.63;16.95;;;;;;;;;;5010361;28;20042;-82
2021/10/28 17:51:30;;;;;;;24.00;17.08;;;;;;;;;;4995531;28;20046;-82
2021/10/28 17:53:56;;;;;;;24.45;15.90;;;;;;;;;;5015663;28;20438;-83
2021/10/28 17:56:22;;;;;;;25.08;16.33;;;;;;;;;;5015889;28;20095;-83
2021/10/28 17:58:49;;;;;;;30.67;17.80;;;;;;;;;;5016909;28;20053;-83
2021/10/28 18:01:19;;;;;;;24.83;16.58;;;;;;;;;;4998711;28;20094;-83
2021/10/28 18:03:45;;;;;;;23.50;17.05;;;;;;;;;;5018249;28;20038;-69
2021/10/28 18:06:11;;;;;;;21.90;15.38;;;;;;;;;;5013478;28;20520;-69
2021/10/28 18:08:37;;;;;;;25.58;15.82;;;;;;;;;;5017262;28;20393;-68
2021/10/28 18:11:04;;;;;;;22.85;15.77;;;;;;;;;;5015526;28;20050;-68
2021/10/28 18:13:30;;;;;;;25.23;16.83;;;;;;;;;;5016836;28;20050;-68
2021/10/28 18:15:56;;;;;;;25.60;16.10;;;;;;;;;;5009715;28;20041;-68
2021/10/28 18:18:23;;;;;;;23.35;15.48;;;;;;;;;;5013733;28;20102;-68
2021/10/28 18:20:49;;;;;;;27.25;16.35;;;;;;;;;;5009220;28;20116;-68
2021/10/28 18:23:16;;;;;;;25.88;16.00;;;;;;;;;;5011482;28;20046;-68
2021/10/28 18:25:42;;;;;;;23.63;15.82;;;;;;;;;;5015119;28;20057;-68
2021/10/28 18:28:09;;;;;;;25.70;16.52;;;;;;;;;;5011474;28;20160;-68
2021/10/28 18:30:37;;;;;;;23.95;17.00;;;;;;;;;;5006627;28;20363;-68
2021/10/28 18:33:04;;;;;;;27.40;16.58;;;;;;;;;;5010575;28;20551;-68
2021/10/28 18:35:30;;;;;;;24.35;16.30;;;;;;;;;;5012819;28;20046;-68
2021/10/28 18:37:56;;;;;;;27.25;16.27;;;;;;;;;;5010997;28;20041;-68
2021/10/28 18:40:22;;;;;;;24.55;16.40;;;;;;;;;;5012021;28;20041;-68
2021/10/28 18:42:49;;;;;;;24.42;17.27;;;;;;;;;;5011057;28;20080;-68
2021/10/28 18:45:16;;;;;;;23.67;14.70;;;;;;;;;;5028062;28;20057;-68
2021/10/28 18:47:43;;;;;;;28.42;16.35;;;;;;;;;;5006742;28;20098;-68
2021/10/28 18:50:09;;;;;;;22.88;16.33;;;;;;;;;;5009987;28;20050;-68
2021/10/28 18:52:36;;;;;;;21.42;16.30;;;;;;;;;;5013557;28;20135;-68
2021/10/28 18:55:03;;;;;;;24.63;16.10;;;;;;;;;;5010691;28;20073;-68
2021/10/28 18:57:29;;;;;;;26.15;17.20;;;;;;;;;;5022797;28;20076;-68
2021/10/28 18:59:55;;;;;;;26.17;16.30;;;;;;;;;;5011214;28;20049;-68
2021/10/28 19:02:24;;;;;;;23.17;16.48;;;;;;;;;;5010503;28;20084;-69
2021/10/28 19:04:50;;;;;;;24.67;17.80;;;;;;;;;;5009716;28;20514;-68
2021/10/28 19:07:17;;;;;;;24.25;17.58;;;;;;;;;;5008422;28;20054;-69
2021/10/28 19:09:43;;;;;;;28.17;17.27;;;;;;;;;;5013658;28;20456;-68
2021/10/28 19:12:09;;;;;;;25.85;17.15;;;;;;;;;;5011122;28;20041;-68
2021/10/28 19:14:42;;;;;;;26.08;16.40;;;;;;;;;;5024447;28;20449;-68
2021/10/28 19:17:08;;;;;;;30.35;17.73;;;;;;;;;;5011085;28;20367;-68
2021/10/28 19:19:35;;;;;;;26.38;17.70;;;;;;;;;;5006645;28;20433;-68
2021/10/28 19:22:01;;;;;;;28.38;17.55;;;;;;;;;;5026038;28;20065;-68
2021/10/28 19:24:28;;;;;;;25.42;17.55;;;;;;;;;;5010483;28;20046;-68
2021/10/28 19:26:54;;;;;;;27.23;18.00;;;;;;;;;;5010573;28;20145;-68
2021/10/28 19:29:21;;;;;;;26.10;16.92;;;;;;;;;;5011560;28;20058;-68
2021/10/28 19:32:08;;;;;;;24.35;17.05;;;;;;;;;;5010795;28;20145;-68
2021/10/28 19:34:38;;;;;;;23.45;17.98;;;;;;;;;;5008349;28;20046;-68
2021/10/28 19:37:12;;;;;;;24.52;16.60;;;;;;;;;;5010551;28;20054;-69
2021/10/28 19:39:53;;;;;;;26.48;16.20;;;;;;;;;;5006307;28;20486;-73
2021/10/28 19:45:02;;;;;;;30.98;18.27;;;;;;;;;;5007533;28;20491;-70
2021/10/28 19:46:08;;;;;;;26.98;16.58;;;;;;;;;;5011757;28;20065;-68
2021/10/28 19:48:14;;;;;;;27.33;17.73;;;;;;;;;;5009331;28;20390;-70
2021/10/28 19:50:41;;;;;;;25.33;17.15;;;;;;;;;;5012171;28;20041;-76
2021/10/28 19:53:07;;;;;;;27.98;18.30;;;;;;;;;;5006894;28;20137;-69
2021/10/28 19:55:34;;;;;;;32.30;17.55;;;;;;;;;;5006797;28;20049;-69
2021/10/28 19:58:01;;;;;;;30.08;18.02;;;;;;;;;;5009523;28;20069;-70
2021/10/28 20:00:37;;;;;;;29.75;18.45;;;;;;;;;;5006834;28;20042;-69
2021/10/28 20:03:26;;;;;;;25.08;17.27;;;;;;;;;;5007401;28;20061;-69
2021/10/28 20:06:11;;;;;;;28.20;17.85;;;;;;;;;;5006760;28;20494;-70
2021/10/28 20:14:20;;;;;;;28.63;17.73;;;;;;;;;;5007172;28;20054;-70
2021/10/28 20:22:17;;;;;;;25.33;17.50;;;;;;;;;;5021452;28;20080;-69
2021/10/28 20:24:43;;;;;;;30.00;16.70;;;;;;;;;;5008590;28;20074;-69
2021/10/28 20:27:09;;;;;;;27.38;17.27;;;;;;;;;;5006853;28;20058;-69
2021/10/28 20:29:35;;;;;;;29.60;18.30;;;;;;;;;;5007324;28;20129;-69
2021/10/28 20:32:02;;;;;;;26.23;17.45;;;;;;;;;;5007362;28;20053;-69
2021/10/28 20:34:33;;;;;;;24.67;17.20;;;;;;;;;;5006093;28;20058;-69
2021/10/28 20:37:05;;;;;;;26.10;17.52;;;;;;;;;;5005178;28;21018;-69
2021/10/28 20:39:32;;;;;;;28.48;17.92;;;;;;;;;;5007663;28;20394;-69
2021/10/28 20:41:59;;;;;;;29.73;18.80;;;;;;;;;;5006560;28;20045;-70
2021/10/28 20:44:25;;;;;;;24.50;17.08;;;;;;;;;;5005624;28;20045;-69
2021/10/28 20:46:51;;;;;;;26.27;18.05;;;;;;;;;;5007152;28;20046;-69
2021/10/28 20:49:17;;;;;;;29.42;18.20;;;;;;;;;;4994658;28;20462;-69
2021/10/28 20:51:44;;;;;;;26.67;19.67;;;;;;;;;;5007243;28;20104;-69
2021/10/28 20:54:10;;;;;;;27.20;18.63;;;;;;;;;;5009551;28;20034;-70
2021/10/28 20:56:37;;;;;;;25.02;18.65;;;;;;;;;;5011490;28;20057;-70
2021/10/28 20:59:04;;;;;;;26.70;19.20;;;;;;;;;;5010430;28;20049;-70
2021/10/28 21:01:31;;;;;;;29.60;19.60;;;;;;;;;;5011096;28;20046;-70
2021/10/28 21:03:57;;;;;;;31.88;21.10;;;;;;;;;;5009652;28;20049;-70
2021/10/28 21:06:23;;;;;;;32.17;20.33;;;;;;;;;;5010784;28;20496;-70
2021/10/28 21:08:50;;;;;;;26.67;19.02;;;;;;;;;;5010459;28;20540;-70
2021/10/28 21:11:16;;;;;;;30.17;18.83;;;;;;;;;;5009483;28;20042;-70
2021/10/28 21:13:42;;;;;;;32.05;19.73;;;;;;;;;;5011888;28;20037;-70
2021/10/28 21:16:09;;;;;;;28.00;19.15;;;;;;;;;;5011375;28;20070;-70
2021/10/28 21:18:35;;;;;;;28.15;18.40;;;;;;;;;;5008977;28;20042;-70
2021/10/28 21:21:02;;;;;;;28.55;18.65;;;;;;;;;;5009867;28;20119;-70
2021/10/28 21:23:28;;;;;;;27.25;18.60;;;;;;;;;;5019502;28;20390;-70
2021/10/28 21:25:54;;;;;;;30.20;18.40;;;;;;;;;;5006470;28;20053;-70
2021/10/28 21:28:21;;;;;;;30.13;18.67;;;;;;;;;;5007097;28;20544;-70
2021/10/28 21:30:47;;;;;;;27.90;18.23;;;;;;;;;;5011545;28;20038;-70
2021/10/28 21:33:14;;;;;;;23.85;17.48;;;;;;;;;;5017184;28;20101;-70
2021/10/28 21:35:41;;;;;;;27.27;19.08;;;;;;;;;;5014713;28;20176;-70
2021/10/28 21:38:07;;;;;;;24.77;17.58;;;;;;;;;;5004896;28;20077;-70
2021/10/28 21:40:34;;;;;;;26.48;17.67;;;;;;;;;;5010727;28;20137;-70
2021/10/28 21:43:00;;;;;;;24.42;17.30;;;;;;;;;;5009718;28;20470;-70
2021/10/28 21:45:27;;;;;;;24.02;17.23;;;;;;;;;;5010570;28;20048;-70
2021/10/28 21:47:53;;;;;;;27.08;19.05;;;;;;;;;;5011779;28;20385;-70
2021/10/28 21:50:20;;;;;;;27.33;17.73;;;;;;;;;;5011851;28;20493;-70
2021/10/28 21:52:52;;;;;;;22.05;16.75;;;;;;;;;;5016569;28;20136;-70
2021/10/28 21:58:00;;;;;;;29.50;18.35;;;;;;;;;;5013812;28;20502;-70
2021/10/28 22:24:25;;;;;;;26.50;19.17;;;;;;;;;;5014305;28;20454;-70
2021/10/28 22:26:52;;;;;;;28.23;21.20;;;;;;;;;;5007395;28;20134;-70
2021/10/28 22:29:18;;;;;;;29.60;21.55;;;;;;;;;;5008384;28;20096;-69
2021/10/28 22:31:44;;;;;;;34.33;20.52;;;;;;;;;;5014269;28;20049;-70
2021/10/28 22:34:11;;;;;;;27.25;19.58;;;;;;;;;;5029043;28;20052;-70
2021/10/28 22:36:49;;;;;;;25.67;19.20;;;;;;;;;;5009407;28;20061;-70
2021/10/28 22:39:22;;;;;;;29.00;19.77;;;;;;;;;;5011219;28;20113;-70
2021/10/28 22:41:49;;;;;;;28.15;19.10;;;;;;;;;;5012405;28;20152;-70
2021/10/28 22:44:15;;;;;;;30.05;20.80;;;;;;;;;;5015713;28;20066;-70
2021/10/28 22:46:41;;;;;;;29.27;19.48;;;;;;;;;;5027917;28;20050;-69
2021/10/28 22:49:07;;;;;;;31.20;18.85;;;;;;;;;;5026782;28;20054;-70